createdAt,value
2019-03-27T00:02:04.254Z,7.00
2019-03-27T00:04:38.125Z,7.00
2019-03-27T00:07:11.874Z,7.00
2019-03-27T00:09:45.681Z,7.00
2019-03-27T00:12:19.534Z,6.90
2019-03-27T00:14:53.352Z,6.90
2019-03-27T00:17:28.074Z,6.80
2019-03-27T00:20:02.185Z,6.80
2019-03-27T00:22:35.647Z,6.80
2019-03-27T00:25:10.035Z,6.90
2019-03-27T00:27:46.437Z,6.80
2019-03-27T00:30:20.235Z,6.80
2019-03-27T00:32:54.508Z,6.80
2019-03-27T00:35:27.958Z,6.70
2019-03-27T00:38:03.717Z,6.60
2019-03-27T00:40:37.687Z,6.50
2019-03-27T00:43:11.632Z,6.50
2019-03-27T00:45:46.264Z,6.40
2019-03-27T00:48:21.054Z,6.40
2019-03-27T00:50:55.807Z,6.40
2019-03-27T00:53:30.094Z,6.40
2019-03-27T00:56:04.246Z,6.50
2019-03-27T00:58:39.559Z,6.50
2019-03-27T01:01:17.049Z,6.40
2019-03-27T01:03:50.974Z,6.50
2019-03-27T01:06:25.311Z,6.60
2019-03-27T01:09:02.558Z,6.70
2019-03-27T01:11:37.307Z,6.70
2019-03-27T01:14:11.501Z,6.80
2019-03-27T01:16:46.469Z,6.80
2019-03-27T01:19:23.822Z,6.90
2019-03-27T01:21:59.970Z,6.90
2019-03-27T01:24:35.732Z,6.90
2019-03-27T01:27:11.648Z,6.90
2019-03-27T01:29:48.413Z,7.00
2019-03-27T01:32:24.426Z,7.00
2019-03-27T01:34:58.446Z,6.90
2019-03-27T01:37:31.986Z,7.00
2019-03-27T01:40:06.254Z,7.00
2019-03-27T01:42:39.951Z,6.80
2019-03-27T01:45:13.368Z,6.80
2019-03-27T01:47:46.587Z,6.80
2019-03-27T01:50:20.533Z,6.70
2019-03-27T01:52:54.383Z,6.70
2019-03-27T01:55:28.368Z,6.70
2019-03-27T01:58:02.349Z,6.70
2019-03-27T02:00:35.896Z,6.70
2019-03-27T02:03:10.431Z,6.70
2019-03-27T02:05:43.520Z,6.70
2019-03-27T02:08:18.673Z,6.60
2019-03-27T02:10:52.294Z,6.50
2019-03-27T02:13:26.487Z,6.50
2019-03-27T02:16:06.894Z,6.50
2019-03-27T02:18:35.766Z,6.40
2019-03-27T02:21:09.958Z,6.40
2019-03-27T02:23:47.864Z,6.30
2019-03-27T02:26:21.234Z,6.10
2019-03-27T02:28:55.138Z,5.90
2019-03-27T02:31:28.503Z,5.80
2019-03-27T02:34:02.821Z,5.70
2019-03-27T02:36:38.051Z,5.70
2019-03-27T02:39:11.658Z,5.60
2019-03-27T02:41:45.668Z,5.50
2019-03-27T02:44:19.717Z,5.50
2019-03-27T02:46:53.353Z,5.50
2019-03-27T02:49:26.719Z,5.50
2019-03-27T02:52:00.611Z,5.40
2019-03-27T02:54:34.598Z,5.30
2019-03-27T02:57:09.121Z,5.20
2019-03-27T02:59:42.225Z,5.00
2019-03-27T03:02:15.775Z,4.90
2019-03-27T03:04:49.684Z,4.90
2019-03-27T03:07:23.635Z,4.80
2019-03-27T03:09:58.183Z,4.70
2019-03-27T03:12:32.051Z,4.60
2019-03-27T03:15:09.108Z,4.50
2019-03-27T03:17:42.870Z,4.40
2019-03-27T03:20:17.457Z,4.50
2019-03-27T03:22:51.440Z,4.40
2019-03-27T03:25:24.811Z,4.30
2019-03-27T03:27:58.479Z,4.20
2019-03-27T03:30:33.011Z,4.20
2019-03-27T03:33:06.991Z,4.10
2019-03-27T03:35:41.165Z,4.00
2019-03-27T03:38:14.301Z,4.00
2019-03-27T03:40:47.949Z,3.90
2019-03-27T03:43:25.334Z,3.90
2019-03-27T03:45:59.740Z,3.90
2019-03-27T03:48:34.109Z,3.80
2019-03-27T03:51:09.112Z,3.80
2019-03-27T03:53:42.466Z,3.80
2019-03-27T03:56:18.651Z,3.80
2019-03-27T03:58:53.051Z,3.80
2019-03-27T04:01:29.204Z,3.90
2019-03-27T04:04:05.680Z,4.00
2019-03-27T04:06:39.811Z,4.10
2019-03-27T04:09:14.178Z,4.20
2019-03-27T04:11:48.212Z,4.30
2019-03-27T04:14:22.480Z,4.40
2019-03-27T04:16:56.026Z,4.40
2019-03-27T04:19:29.446Z,4.40
2019-03-27T04:22:03.584Z,4.40
2019-03-27T04:24:38.780Z,4.40
2019-03-27T04:27:12.599Z,4.40
2019-03-27T04:29:46.772Z,4.50
2019-03-27T04:32:21.101Z,4.50
2019-03-27T04:34:56.208Z,4.60
2019-03-27T04:37:30.109Z,4.60
2019-03-27T04:40:04.252Z,4.70
2019-03-27T04:42:38.023Z,4.70
2019-03-27T04:45:12.230Z,4.70
2019-03-27T04:47:45.970Z,4.80
2019-03-27T04:50:19.738Z,4.80
2019-03-27T04:52:54.520Z,4.70
2019-03-27T04:55:28.996Z,4.70
2019-03-27T04:58:03.899Z,4.70
2019-03-27T05:00:37.614Z,4.60
2019-03-27T05:03:14.496Z,4.50
2019-03-27T05:05:48.406Z,4.40
2019-03-27T05:08:22.691Z,4.20
2019-03-27T05:10:56.397Z,4.00
2019-03-27T05:13:30.869Z,3.90
2019-03-27T05:16:04.721Z,3.80
2019-03-27T05:18:38.548Z,3.80
2019-03-27T05:21:13.237Z,3.70
2019-03-27T05:23:47.415Z,3.70
2019-03-27T05:26:21.523Z,3.70
2019-03-27T05:28:55.188Z,3.60
2019-03-27T05:31:30.276Z,3.60
2019-03-27T05:34:04.759Z,3.60
2019-03-27T05:36:38.392Z,3.70
2019-03-27T05:39:14.582Z,3.70
2019-03-27T05:41:47.707Z,3.80
2019-03-27T05:44:21.791Z,3.80
2019-03-27T05:46:55.354Z,3.70
2019-03-27T05:49:28.860Z,3.60
2019-03-27T05:52:03.353Z,3.50
2019-03-27T05:54:36.943Z,3.50
2019-03-27T05:57:10.514Z,3.40
2019-03-27T05:59:44.412Z,3.40
2019-03-27T06:02:19.804Z,3.30
2019-03-27T06:04:53.661Z,3.30
2019-03-27T06:07:27.447Z,3.20
2019-03-27T06:10:01.856Z,3.00
2019-03-27T06:12:35.436Z,2.90
2019-03-27T06:15:08.967Z,2.80
2019-03-27T06:17:42.159Z,2.80
2019-03-27T06:20:15.416Z,2.80
2019-03-27T06:22:48.200Z,2.80
2019-03-27T06:25:22.752Z,2.90
2019-03-27T06:27:55.985Z,2.90
2019-03-27T06:30:31.919Z,2.90
2019-03-27T06:33:05.005Z,3.10
2019-03-27T06:35:38.004Z,3.20
2019-03-27T06:38:11.160Z,3.30
2019-03-27T06:40:43.892Z,3.40
2019-03-27T06:43:16.921Z,3.50
2019-03-27T06:45:49.889Z,3.60
2019-03-27T06:48:26.447Z,3.70
2019-03-27T06:50:56.844Z,3.80
2019-03-27T06:53:30.218Z,3.90
2019-03-27T06:56:03.291Z,4.00
2019-03-27T06:58:36.502Z,4.20
2019-03-27T07:01:09.280Z,4.40
2019-03-27T07:03:42.317Z,4.60
2019-03-27T07:06:15.756Z,4.80
2019-03-27T07:08:49.341Z,5.00
2019-03-27T07:11:24.845Z,5.20
2019-03-27T07:13:57.726Z,5.30
2019-03-27T07:16:30.100Z,5.50
2019-03-27T07:19:06.081Z,5.70
2019-03-27T07:21:38.712Z,5.90
2019-03-27T07:24:13.202Z,6.10
2019-03-27T07:26:45.819Z,6.20
2019-03-27T07:29:19.303Z,6.40
2019-03-27T07:31:51.801Z,6.50
2019-03-27T07:34:25.244Z,6.60
2019-03-27T07:36:58.983Z,6.70
2019-03-27T07:39:33.035Z,6.90
2019-03-27T07:42:05.579Z,7.10
2019-03-27T07:44:38.521Z,7.30
2019-03-27T07:47:11.937Z,7.50
2019-03-27T07:49:44.788Z,7.80
2019-03-27T07:52:18.876Z,8.10
2019-03-27T07:54:52.970Z,8.30
2019-03-27T07:57:26.572Z,8.70
2019-03-27T07:59:59.162Z,9.00
2019-03-27T08:02:31.891Z,9.20
2019-03-27T08:05:07.565Z,9.40
2019-03-27T08:07:41.504Z,9.70
2019-03-27T08:10:14.756Z,9.90
2019-03-27T08:12:48.481Z,10.00
2019-03-27T08:15:22.177Z,10.10
2019-03-27T08:17:56.903Z,10.10
2019-03-27T08:20:30.811Z,10.10
2019-03-27T08:23:06.977Z,9.90
2019-03-27T08:25:40.785Z,9.70
2019-03-27T08:28:14.113Z,9.60
2019-03-27T08:30:46.934Z,9.50
2019-03-27T08:33:19.986Z,9.70
2019-03-27T08:35:53.283Z,9.70
2019-03-27T08:38:32.659Z,9.70
2019-03-27T08:41:05.392Z,9.60
2019-03-27T08:43:38.134Z,9.60
2019-03-27T08:46:11.002Z,9.80
2019-03-27T08:48:43.851Z,10.00
2019-03-27T08:51:17.712Z,10.30
2019-03-27T08:53:50.171Z,10.70
2019-03-27T08:56:25.840Z,11.00
2019-03-27T08:59:00.729Z,11.40
2019-03-27T09:01:33.457Z,11.80
2019-03-27T09:04:06.486Z,12.00
2019-03-27T09:06:39.650Z,12.10
2019-03-27T09:09:12.977Z,12.10
2019-03-27T09:11:45.468Z,11.90
2019-03-27T09:14:18.120Z,11.50
2019-03-27T09:16:50.639Z,11.20
2019-03-27T09:19:35.024Z,11.00
2019-03-27T09:21:59.697Z,11.10
2019-03-27T09:24:32.808Z,11.10
2019-03-27T09:27:05.491Z,11.30
2019-03-27T09:29:39.261Z,11.80
2019-03-27T09:32:12.260Z,12.10
2019-03-27T09:34:45.002Z,12.20
2019-03-27T09:37:17.986Z,12.50
2019-03-27T09:39:51.489Z,12.70
2019-03-27T09:42:26.446Z,12.70
2019-03-27T09:44:58.972Z,12.70
2019-03-27T09:47:34.594Z,12.40
2019-03-27T09:50:08.501Z,12.10
2019-03-27T09:52:41.917Z,11.80
2019-03-27T09:55:16.486Z,11.50
2019-03-27T09:57:55.388Z,11.40
2019-03-27T10:01:03.216Z,11.50
2019-03-27T10:03:36.473Z,11.60
2019-03-27T10:06:10.971Z,11.60
2019-03-27T10:08:47.265Z,11.70
2019-03-27T10:11:23.757Z,12.00
2019-03-27T10:13:57.392Z,12.20
2019-03-27T10:16:30.918Z,12.40
2019-03-27T10:19:05.234Z,12.60
2019-03-27T10:21:40.114Z,12.80
2019-03-27T10:24:14.152Z,12.70
2019-03-27T10:26:48.152Z,12.60
2019-03-27T10:29:21.285Z,12.60
2019-03-27T10:31:54.058Z,12.70
2019-03-27T10:34:27.043Z,12.80
2019-03-27T10:36:59.713Z,12.70
2019-03-27T10:39:33.868Z,12.70
2019-03-27T10:42:06.654Z,12.80
2019-03-27T10:44:40.433Z,12.80
2019-03-27T10:47:13.663Z,13.20
2019-03-27T10:49:46.727Z,13.50
2019-03-27T10:52:19.970Z,13.90
2019-03-27T10:54:52.927Z,13.90
2019-03-27T10:57:26.701Z,13.70
2019-03-27T11:00:01.605Z,13.70
2019-03-27T11:02:38.730Z,13.90
2019-03-27T11:05:12.221Z,13.90
2019-03-27T11:07:47.465Z,13.90
2019-03-27T11:10:22.209Z,14.30
2019-03-27T11:12:54.757Z,15.80
2019-03-27T11:15:27.881Z,16.80
2019-03-27T11:18:02.203Z,17.50
2019-03-27T11:20:35.439Z,17.40
2019-03-27T11:23:08.485Z,16.60
2019-03-27T11:25:41.148Z,16.00
2019-03-27T11:28:13.818Z,15.40
2019-03-27T11:30:48.544Z,15.50
2019-03-27T11:33:22.447Z,16.30
2019-03-27T11:35:55.068Z,17.40
2019-03-27T11:38:30.109Z,18.00
2019-03-27T11:41:03.939Z,17.10
2019-03-27T11:43:37.766Z,16.30
2019-03-27T11:46:10.945Z,15.80
2019-03-27T11:48:44.005Z,15.40
2019-03-27T11:51:17.677Z,14.80
2019-03-27T11:53:50.572Z,14.50
2019-03-27T11:56:23.028Z,14.30
2019-03-27T11:58:55.973Z,14.10
2019-03-27T12:01:39.253Z,13.90
2019-03-27T12:04:04.516Z,14.10
2019-03-27T12:06:39.578Z,14.40
2019-03-27T12:09:16.970Z,14.50
2019-03-27T12:11:49.973Z,15.00
2019-03-27T12:14:23.942Z,15.20
2019-03-27T12:16:56.637Z,15.70
2019-03-27T12:19:29.110Z,16.40
2019-03-27T12:22:02.098Z,16.90
2019-03-27T12:24:35.800Z,17.20
2019-03-27T12:27:07.653Z,18.20
2019-03-27T12:29:41.532Z,19.80
2019-03-27T12:32:14.360Z,21.40
2019-03-27T12:34:46.763Z,21.50
2019-03-27T12:37:21.364Z,21.00
2019-03-27T12:39:54.360Z,20.00
2019-03-27T12:42:27.931Z,19.20
2019-03-27T12:45:02.321Z,18.00
2019-03-27T12:47:36.324Z,17.30
2019-03-27T12:50:09.431Z,16.30
2019-03-27T12:52:42.110Z,16.00
2019-03-27T12:55:14.459Z,16.30
2019-03-27T12:57:48.965Z,16.10
2019-03-27T13:00:22.633Z,16.20
2019-03-27T13:02:56.026Z,16.10
2019-03-27T13:05:32.499Z,16.40
2019-03-27T13:08:06.546Z,17.10
2019-03-27T13:10:40.036Z,18.50
2019-03-27T13:13:15.239Z,19.60
2019-03-27T13:15:49.384Z,20.20
2019-03-27T13:18:22.584Z,20.60
2019-03-27T13:20:55.416Z,19.40
2019-03-27T13:23:28.732Z,18.30
2019-03-27T13:26:03.089Z,17.80
2019-03-27T13:28:48.320Z,17.50
2019-03-27T13:31:10.525Z,17.50
2019-03-27T13:33:44.473Z,16.90
2019-03-27T13:36:18.002Z,16.30
2019-03-27T13:38:51.317Z,16.00
2019-03-27T13:41:24.663Z,15.70
2019-03-27T13:43:58.826Z,15.70
2019-03-27T13:46:32.874Z,15.50
2019-03-27T13:49:07.549Z,15.40
2019-03-27T13:51:41.312Z,15.30
2019-03-27T13:54:16.388Z,15.20
2019-03-27T13:56:49.290Z,14.70
2019-03-27T13:59:25.936Z,14.70
2019-03-27T14:01:58.951Z,14.70
2019-03-27T14:04:32.207Z,14.50
2019-03-27T14:07:05.095Z,14.40
2019-03-27T14:09:37.560Z,14.50
2019-03-27T14:12:10.509Z,14.50
2019-03-27T14:14:50.119Z,14.60
2019-03-27T14:17:18.602Z,14.70
2019-03-27T14:19:51.572Z,14.60
2019-03-27T14:22:24.994Z,14.50
2019-03-27T14:24:58.549Z,14.50
2019-03-27T14:27:32.296Z,14.50
2019-03-27T14:30:07.309Z,14.50
2019-03-27T14:32:41.622Z,14.60
2019-03-27T14:35:14.948Z,14.80
2019-03-27T14:37:47.652Z,14.80
2019-03-27T14:40:23.125Z,14.80
2019-03-27T14:42:57.717Z,14.80
2019-03-27T14:45:34.362Z,14.50
2019-03-27T14:48:07.246Z,14.40
2019-03-27T14:50:40.813Z,14.20
2019-03-27T14:53:14.437Z,14.10
2019-03-27T14:55:47.527Z,14.10
2019-03-27T14:58:22.409Z,14.30
2019-03-27T15:00:54.976Z,14.50
2019-03-27T15:03:28.609Z,14.40
2019-03-27T15:06:03.177Z,14.50
2019-03-27T15:08:39.365Z,14.70
2019-03-27T15:11:12.471Z,14.80
2019-03-27T15:13:46.958Z,14.90
2019-03-27T15:16:20.044Z,14.90
2019-03-27T15:18:53.494Z,14.80
2019-03-27T15:21:26.929Z,15.00
2019-03-27T15:23:59.892Z,15.20
2019-03-27T15:26:33.627Z,15.10
2019-03-27T15:29:08.728Z,14.70
2019-03-27T15:31:45.135Z,14.60
2019-03-27T15:34:19.189Z,14.50
2019-03-27T15:36:51.639Z,14.40
2019-03-27T15:39:26.720Z,14.20
2019-03-27T15:42:00.274Z,14.10
2019-03-27T15:44:33.546Z,14.20
2019-03-27T15:47:06.420Z,14.00
2019-03-27T15:49:40.781Z,13.80
2019-03-27T15:52:15.701Z,13.80
2019-03-27T15:54:53.277Z,13.80
2019-03-27T15:57:27.725Z,13.80
2019-03-27T16:00:00.679Z,13.90
2019-03-27T16:02:33.927Z,13.90
2019-03-27T16:05:09.000Z,14.00
2019-03-27T16:07:42.735Z,14.10
2019-03-27T16:10:19.132Z,14.30
2019-03-27T16:12:56.680Z,14.40
2019-03-27T16:15:37.067Z,14.40
2019-03-27T16:18:10.803Z,14.60
2019-03-27T16:20:44.833Z,14.50
2019-03-27T16:23:20.625Z,14.30
2019-03-27T16:25:54.566Z,14.20
2019-03-27T16:28:28.840Z,14.30
2019-03-27T16:31:02.631Z,14.60
2019-03-27T16:33:36.527Z,14.90
2019-03-27T16:36:09.717Z,15.10
2019-03-27T16:38:42.821Z,15.40
2019-03-27T16:41:15.662Z,15.20
2019-03-27T16:43:50.503Z,14.70
2019-03-27T16:46:25.335Z,14.50
2019-03-27T16:48:58.623Z,14.30
2019-03-27T16:51:33.318Z,14.00
2019-03-27T16:54:06.677Z,13.80
2019-03-27T16:56:39.777Z,13.70
2019-03-27T16:59:13.071Z,13.70
2019-03-27T17:01:46.368Z,13.50
2019-03-27T17:04:19.558Z,13.30
2019-03-27T17:06:53.296Z,13.10
2019-03-27T17:09:25.667Z,13.00
2019-03-27T17:12:02.820Z,12.90
2019-03-27T17:14:35.959Z,12.80
2019-03-27T17:17:17.219Z,12.70
2019-03-27T17:19:51.727Z,12.70
2019-03-27T17:22:27.169Z,12.60
2019-03-27T17:25:00.875Z,12.50
2019-03-27T17:27:37.150Z,12.40
2019-03-27T17:30:10.860Z,12.40
2019-03-27T17:32:46.738Z,12.30
2019-03-27T17:35:38.579Z,12.20
2019-03-27T17:38:28.319Z,12.10
2019-03-27T17:41:03.831Z,12.10
2019-03-27T17:43:38.699Z,12.00
2019-03-27T17:46:13.896Z,11.90
2019-03-27T17:49:02.645Z,11.80
2019-03-27T17:51:36.387Z,11.80
2019-03-27T17:54:20.474Z,11.70
2019-03-27T17:56:51.614Z,11.70
2019-03-27T17:59:28.479Z,11.60
2019-03-27T18:02:02.210Z,11.60
2019-03-27T18:04:35.690Z,11.50
2019-03-27T18:07:10.832Z,11.40
2019-03-27T18:09:49.038Z,11.30
2019-03-27T18:12:24.206Z,11.30
2019-03-27T18:14:58.022Z,11.20
2019-03-27T18:17:35.215Z,11.10
2019-03-27T18:20:08.962Z,11.10
2019-03-27T18:22:52.212Z,11.10
2019-03-27T18:25:36.231Z,11.30
2019-03-27T18:28:20.173Z,11.30
2019-03-27T18:31:06.929Z,11.30
2019-03-27T18:33:41.386Z,11.30
2019-03-27T18:36:17.789Z,11.20
2019-03-27T18:38:59.387Z,11.30
2019-03-27T18:41:33.106Z,11.30
2019-03-27T18:44:06.122Z,11.30
2019-03-27T18:46:47.583Z,11.40
2019-03-27T18:49:26.857Z,11.30
2019-03-27T18:52:04.726Z,11.30
2019-03-27T18:54:41.391Z,11.30
2019-03-27T18:57:15.023Z,11.20
2019-03-27T18:59:50.014Z,11.20
2019-03-27T19:02:27.176Z,11.20
2019-03-27T19:05:02.280Z,11.20
2019-03-27T19:07:36.737Z,11.20
2019-03-27T19:10:16.064Z,11.10
2019-03-27T19:12:51.181Z,11.10
2019-03-27T19:15:30.147Z,11.10
2019-03-27T19:18:08.222Z,11.10
2019-03-27T19:20:44.759Z,11.00
2019-03-27T19:23:22.826Z,11.00
2019-03-27T19:25:59.424Z,11.00
2019-03-27T19:28:32.962Z,11.00
2019-03-27T19:31:06.562Z,10.90
2019-03-27T19:33:40.810Z,10.90
2019-03-27T19:36:16.493Z,10.90
2019-03-27T19:38:51.395Z,10.90
2019-03-27T19:41:25.754Z,10.90
2019-03-27T19:44:00.672Z,10.90
2019-03-27T19:46:33.458Z,10.80
2019-03-27T19:49:10.052Z,10.70
2019-03-27T19:51:42.978Z,10.70
2019-03-27T19:54:26.592Z,10.70
2019-03-27T19:56:53.236Z,10.70
2019-03-27T19:59:29.235Z,10.70
2019-03-27T20:02:02.568Z,10.70
2019-03-27T20:04:38.307Z,10.60
2019-03-27T20:07:12.142Z,10.60
2019-03-27T20:09:45.416Z,10.60
2019-03-27T20:12:19.438Z,10.60
2019-03-27T20:14:53.029Z,10.60
2019-03-27T20:17:26.125Z,10.60
2019-03-27T20:20:00.403Z,10.60
2019-03-27T20:22:33.770Z,10.50
2019-03-27T20:25:18.027Z,10.50
2019-03-27T20:27:51.703Z,10.60
2019-03-27T20:30:27.034Z,10.40
2019-03-27T20:33:01.754Z,10.40
2019-03-27T20:35:36.330Z,10.40
2019-03-27T20:38:11.626Z,10.40
2019-03-27T20:40:46.562Z,10.50
2019-03-27T20:43:20.594Z,10.40
2019-03-27T20:45:55.789Z,10.50
2019-03-27T20:48:29.054Z,10.50
2019-03-27T20:51:02.512Z,10.50
2019-03-27T20:53:36.351Z,10.40
2019-03-27T20:56:11.444Z,10.50
2019-03-27T20:58:45.002Z,10.50
2019-03-27T21:01:19.562Z,10.40
2019-03-27T21:03:53.867Z,10.40
2019-03-27T21:06:27.735Z,10.40
2019-03-27T21:09:01.562Z,10.40
2019-03-27T21:11:38.116Z,10.40
2019-03-27T21:14:11.958Z,10.40
2019-03-27T21:16:45.849Z,10.40
2019-03-27T21:19:22.466Z,10.40
2019-03-27T21:22:00.841Z,10.30
2019-03-27T21:24:34.393Z,10.30
2019-03-27T21:27:09.476Z,10.20
2019-03-27T21:29:44.635Z,10.20
2019-03-27T21:32:18.592Z,10.10
2019-03-27T21:34:51.600Z,10.00
2019-03-27T21:37:25.224Z,10.00
2019-03-27T21:39:57.888Z,9.80
2019-03-27T21:42:30.871Z,9.70
2019-03-27T21:45:06.635Z,9.60
2019-03-27T21:47:42.698Z,9.50
2019-03-27T21:50:16.051Z,9.50
2019-03-27T21:53:00.515Z,9.40
2019-03-27T21:55:41.905Z,9.50
2019-03-27T21:58:03.159Z,9.60
2019-03-27T22:00:43.281Z,9.70
2019-03-27T22:03:17.919Z,9.80
2019-03-27T22:05:51.219Z,9.80
2019-03-27T22:08:28.794Z,9.90
2019-03-27T22:11:04.747Z,9.80
2019-03-27T22:13:37.942Z,9.80
2019-03-27T22:16:15.574Z,9.70
2019-03-27T22:18:49.453Z,9.60
2019-03-27T22:21:24.029Z,9.60
2019-03-27T22:23:59.693Z,9.50
2019-03-27T22:26:37.507Z,9.50
2019-03-27T22:29:17.198Z,9.50
2019-03-27T22:31:50.949Z,9.40
2019-03-27T22:34:25.333Z,9.40
2019-03-27T22:36:59.584Z,9.40
2019-03-27T22:39:33.189Z,9.40
2019-03-27T22:42:07.362Z,9.40
2019-03-27T22:44:46.747Z,9.30
2019-03-27T22:47:21.278Z,9.30
2019-03-27T22:49:54.244Z,9.20
2019-03-27T22:52:29.270Z,9.20
2019-03-27T22:55:02.709Z,9.10
2019-03-27T22:57:36.424Z,9.10
2019-03-27T23:00:11.237Z,9.00
2019-03-27T23:02:48.189Z,9.00
2019-03-27T23:05:23.345Z,8.90
2019-03-27T23:07:57.949Z,8.90
2019-03-27T23:10:33.063Z,8.90
2019-03-27T23:13:07.000Z,8.80
2019-03-27T23:15:41.491Z,8.80
2019-03-27T23:18:14.960Z,8.70
2019-03-27T23:20:49.467Z,8.70
2019-03-27T23:23:24.375Z,8.70
2019-03-27T23:26:02.849Z,8.60
2019-03-27T23:28:32.502Z,8.60
2019-03-27T23:31:05.366Z,8.60
2019-03-27T23:33:38.230Z,8.60
2019-03-27T23:36:11.050Z,8.50
2019-03-27T23:38:44.676Z,8.50
2019-03-27T23:41:19.491Z,8.50
2019-03-27T23:43:52.419Z,8.50
2019-03-27T23:46:25.199Z,8.50
2019-03-27T23:48:58.881Z,8.40
2019-03-27T23:51:31.551Z,8.40
2019-03-27T23:54:04.972Z,8.40
2019-03-27T23:56:38.015Z,8.30
2019-03-27T23:59:11.205Z,8.30
